WetterOnline ( http://www.wetteronline.de )

Wetter aktuell Stuttgart

Aktuelles Wetter: Schnarrenberg/Stuttgart (315m)

6-stündlich | Neueste Meldungen
Ortszeit Temperatur Wetter
So, 18.11. 13:00 5.7° C wolkenlos
So, 18.11. 7:00 -0.1° C wolkenlos
So, 18.11. 1:00 1.3° C wolkenlos
Sa, 17.11. 19:00 5.6° C wolkenlos
Sa, 17.11. 13:00 9.6° C wolkenlos
Sa, 17.11. 7:00 -0.0° C wolkenlos
Sa, 17.11. 1:00 1.8° C wolkenlos
Fr, 16.11. 19:00 5.0° C wolkenlos
Ortszeit Temperatur Wetter
So, 18.11. 18:30 4.5° C bedeckt
So, 18.11. 18:20 4.5° C bedeckt
So, 18.11. 18:10 4.5° C bedeckt
So, 18.11. 18:00 4.3° C bedeckt
So, 18.11. 17:50 4.3° C bedeckt
So, 18.11. 17:40 4.2° C bedeckt
So, 18.11. 17:30 4.7° C wolkig
So, 18.11. 17:00 5.2° C wolkenlos
So, 18.11. 16:30 5.7° C wolkenlos
So, 18.11. 16:00 6.3° C wolkenlos
So, 18.11. 15:30 6.6° C wolkenlos
Ortszeit Relative Feuchte Sichtweite
So, 18.11. 13:00 51% 35 km
So, 18.11. 7:00 80% 26 km
So, 18.11. 1:00 72% 30 km
Sa, 17.11. 19:00 58% 45 km
Sa, 17.11. 13:00 48% 55 km
Sa, 17.11. 7:00 90% 9 km
Sa, 17.11. 1:00 87% 16 km
Fr, 16.11. 19:00 74% 19 km
Ortszeit Relative Feuchte Sichtweite
So, 18.11. 18:30 56% 40 km
So, 18.11. 18:20 56% -
So, 18.11. 18:10 56% -
So, 18.11. 18:00 56% 40 km
So, 18.11. 17:50 56% -
So, 18.11. 17:40 56% -
So, 18.11. 17:30 54% 35 km
So, 18.11. 17:00 52% 40 km
So, 18.11. 16:30 52% 35 km
So, 18.11. 16:00 50% 40 km
So, 18.11. 15:30 49% 40 km
Ortszeit Niederschlagsmenge Niederschlagsart
So, 18.11. 13:00 0.0 l/m2 in 6 Std. -
So, 18.11. 7:00 0.0 l/m2 in 12 Std. -
So, 18.11. 1:00 0.0 l/m2 in 6 Std. -
Sa, 17.11. 19:00 0.0 l/m2 in 12 Std. -
Sa, 17.11. 13:00 0.1 l/m2 in 6 Std. Niederschlag
Sa, 17.11. 7:00 0.0 l/m2 in 12 Std. -
Sa, 17.11. 1:00 0.0 l/m2 in 6 Std. -
Fr, 16.11. 19:00 0.0 l/m2 in 12 Std. -
Ortszeit Niederschlagsmenge Niederschlagsart
So, 18.11. 18:30 0.0 l/m2 in 1 Std. -
So, 18.11. 18:20 keine Meldung -
So, 18.11. 18:10 keine Meldung -
So, 18.11. 18:00 0.0 l/m2 in 1 Std. -
So, 18.11. 17:50 keine Meldung -
So, 18.11. 17:40 keine Meldung -
So, 18.11. 17:30 0.0 l/m2 in 1 Std. -
So, 18.11. 17:00 0.0 l/m2 in 1 Std. -
So, 18.11. 16:30 0.0 l/m2 in 1 Std. -
So, 18.11. 16:00 0.0 l/m2 in 1 Std. -
So, 18.11. 15:30 0.0 l/m2 in 1 Std. -
Ortszeit Stärke Spitze Richtung
km/h Bft. km/h Grad Sektor
So, 18.11. 13:00 18 3 29 60° NO
So, 18.11. 7:00 7 2 18 20° N
So, 18.11. 1:00 7 2 25 50° NO
Sa, 17.11. 19:00 18 3 40 90° O
Sa, 17.11. 13:00 13 3 26 90° O
Sa, 17.11. 7:00 7 2 18 310° NW
Sa, 17.11. 1:00 11 2 14 40° NO
Fr, 16.11. 19:00 7 2 33 150° SO
Ortszeit Stärke Spitze Richtung
km/h Bft. km/h Grad Sektor
So, 18.11. 18:30 11 2 18 360° N
So, 18.11. 18:20 11 2 - 360° N
So, 18.11. 18:10 11 2 - 350° N
So, 18.11. 18:00 9 2 19 360° N
So, 18.11. 17:50 9 2 - 360° N
So, 18.11. 17:40 7 2 - 360° N
So, 18.11. 17:30 7 2 18 340° N
So, 18.11. 17:00 13 3 22 30° NO
So, 18.11. 16:30 11 2 22 30° NO
So, 18.11. 16:00 11 2 25 60° NO
So, 18.11. 15:30 13 3 26 50° NO
Ortszeit Untergrenze Bedeckung Gattung
total tief tief mittel hoch
So, 18.11. 13:00 - 0/8 0/8 - - -
So, 18.11. 7:00 - 0/8 0/8 - - -
So, 18.11. 1:00 - 0/8 0/8 - - -
Sa, 17.11. 19:00 - 0/8 0/8 - - -
Sa, 17.11. 13:00 - 0/8 0/8 - - -
Sa, 17.11. 7:00 - 0/8 0/8 - - -
Sa, 17.11. 1:00 - 0/8 0/8 - - -
Fr, 16.11. 19:00 - 0/8 0/8 - - -
Ortszeit Bedeckungsgrad in Achtel und Wolkenuntergrenze
So, 18.11. 18:30 6(3600m) 8(4200m)
So, 18.11. 18:20 6(3600m) 8(4200m)
So, 18.11. 18:10 8(4200m)
So, 18.11. 18:00 8(4500m)
So, 18.11. 17:50 8(4500m)
So, 18.11. 17:40 8(4500m)
So, 18.11. 17:30 6(4500m)
So, 18.11. 17:00 keine Wolken
So, 18.11. 16:30 keine Wolken
So, 18.11. 16:00 keine Wolken
So, 18.11. 15:30 keine Wolken
Ortszeit Luftdruck NN (hPa) Tendenz (hPa in 3 Std.)
So, 18.11. 13:00 1024 - 1,2
So, 18.11. 7:00 1027 - 0,5
So, 18.11. 1:00 1028 - 0,2
Sa, 17.11. 19:00 1028 + 0,9
Sa, 17.11. 13:00 1027 - 0,9
Sa, 17.11. 7:00 1028 - 0,5
Sa, 17.11. 1:00 1029 - 0,3
Fr, 16.11. 19:00 1029 + 0,4
Ortszeit Luftdruck NN (hPa) Tendenz (hPa in 3 Std.)
So, 18.11. 18:30 1021 - 1,4
So, 18.11. 18:20 1021 keine Meldung
So, 18.11. 18:10 1021 keine Meldung
So, 18.11. 18:00 1021 - 1,5
So, 18.11. 17:50 1021 keine Meldung
So, 18.11. 17:40 1021 keine Meldung
So, 18.11. 17:30 1022 - 1,6
So, 18.11. 17:00 1022 - 1,1
So, 18.11. 16:30 1022 - 1,5
So, 18.11. 16:00 1022 - 1,9
So, 18.11. 15:30 1022 - 1,7
Ortszeit Schneehöhe (cm)
So, 18.11. 13:00 0
So, 18.11. 7:00 0
So, 18.11. 1:00 0
Sa, 17.11. 19:00 0
Sa, 17.11. 13:00 0
Sa, 17.11. 7:00 0
Sa, 17.11. 1:00 0
Fr, 16.11. 19:00 0
Ortszeit Schneehöhe (cm)
So, 18.11. 18:30 0
So, 18.11. 18:20 0
So, 18.11. 18:10 0
So, 18.11. 18:00 0
So, 18.11. 17:50 0
So, 18.11. 17:40 0
So, 18.11. 17:30 0
So, 18.11. 17:00 0
So, 18.11. 16:30 0
So, 18.11. 16:00 0
So, 18.11. 15:30 0
Link zu dieser Seite / Seite empfehlen

Das Wetter in ...